createdAt,value
2017-10-06T08:04:12.821Z,974.21
2017-10-06T08:05:22.780Z,974.19
2017-10-06T08:06:32.418Z,974.22
2017-10-06T08:07:42.714Z,974.15
2017-10-06T08:08:52.778Z,974.24
2017-10-06T08:10:02.735Z,974.24
2017-10-06T08:11:13.016Z,974.3
2017-10-06T08:12:23.293Z,974.24
2017-10-06T08:13:33.573Z,974.25
2017-10-06T08:14:43.459Z,974.27
2017-10-06T08:15:53.737Z,974.29
2017-10-06T08:17:03.694Z,974.3
2017-10-06T08:18:13.648Z,974.36
2017-10-06T08:19:23.605Z,974.35
2017-10-06T08:20:34.012Z,974.34
2017-10-06T08:21:43.974Z,974.36
2017-10-06T08:22:54.255Z,974.36
2017-10-06T08:24:04.533Z,974.36
2017-10-06T08:25:14.812Z,974.35
2017-10-06T08:26:25.188Z,974.24
2017-10-06T08:27:35.463Z,974.36
2017-10-06T08:28:45.740Z,974.35
2017-10-06T08:29:55.701Z,974.34
2017-10-06T08:31:05.663Z,974.38
2017-10-06T08:32:15.918Z,974.38
2017-10-06T08:33:25.578Z,974.3
2017-10-06T08:34:35.558Z,974.35
2017-10-06T08:35:45.514Z,974.44
2017-10-06T08:36:55.836Z,974.4
2017-10-06T08:38:05.956Z,974.34
2017-10-06T08:39:15.605Z,974.41
2017-10-06T08:40:25.886Z,974.46
2017-10-06T08:41:36.167Z,974.45
2017-10-06T08:42:46.451Z,974.45
2017-10-06T08:43:56.826Z,974.44
2017-10-06T08:45:06.786Z,974.48
2017-10-06T08:46:16.739Z,974.5
2017-10-06T08:47:26.374Z,974.49
2017-10-06T08:48:36.332Z,974.52
2017-10-06T08:49:48.916Z,974.54
2017-10-06T08:50:58.551Z,974.52
2017-10-06T08:52:08.861Z,974.52
2017-10-06T08:53:18.831Z,974.5
2017-10-06T08:54:29.110Z,974.55
2017-10-06T08:55:39.501Z,974.59
2017-10-06T08:56:49.455Z,974.57
2017-10-06T08:57:59.410Z,974.57
2017-10-06T08:59:08.721Z,974.53
2017-10-06T09:00:18.682Z,974.6
2017-10-06T09:01:29.061Z,974.52
2017-10-06T09:02:39.020Z,974.59
2017-10-06T09:03:48.334Z,974.61
2017-10-06T09:04:58.612Z,974.57
2017-10-06T09:06:08.247Z,974.63
2017-10-06T09:07:18.458Z,974.64
2017-10-06T09:08:28.421Z,974.6
2017-10-06T09:09:38.702Z,974.62
2017-10-06T09:10:48.982Z,974.61
2017-10-06T09:11:58.942Z,974.63
2017-10-06T09:13:09.369Z,974.62
2017-10-06T09:14:19.009Z,974.65
2017-10-06T09:15:28.650Z,974.75
2017-10-06T09:16:38.288Z,974.7
2017-10-06T09:17:48.571Z,974.62
2017-10-06T09:18:58.629Z,974.71
2017-10-06T09:20:08.266Z,974.66
2017-10-06T09:21:18.548Z,974.67
2017-10-06T09:22:28.505Z,974.71
2017-10-06T09:23:38.781Z,974.79
2017-10-06T09:24:48.842Z,974.78
2017-10-06T09:25:59.125Z,974.79
2017-10-06T09:27:08.762Z,974.81
2017-10-06T09:28:18.072Z,974.89
2017-10-06T09:29:28.366Z,974.86
2017-10-06T09:30:38.744Z,974.81
2017-10-06T09:31:49.061Z,974.86
2017-10-06T09:32:59.017Z,974.78
2017-10-06T09:34:09.294Z,974.78
2017-10-06T09:35:19.576Z,974.86
2017-10-06T09:36:29.317Z,974.77
2017-10-06T09:37:39.270Z,974.83
2017-10-06T09:38:49.227Z,974.79
2017-10-06T09:39:58.862Z,974.78
2017-10-06T09:41:08.819Z,974.86
2017-10-06T09:42:19.033Z,974.75
2017-10-06T09:43:29.313Z,974.8
2017-10-06T09:44:38.951Z,974.8
2017-10-06T09:45:48.624Z,974.77
2017-10-06T09:46:58.578Z,974.72
2017-10-06T09:48:08.957Z,974.83
2017-10-06T09:49:18.924Z,974.77
2017-10-06T09:50:28.885Z,974.72
2017-10-06T09:51:38.850Z,974.79
2017-10-06T09:52:49.134Z,974.79
2017-10-06T09:53:59.223Z,974.86
2017-10-06T09:55:08.858Z,974.8
2017-10-06T09:56:19.135Z,974.79
2017-10-06T09:57:29.422Z,974.84
2017-10-06T09:58:39.063Z,974.89
2017-10-06T09:59:49.343Z,974.77
2017-10-06T10:00:59.305Z,974.75
2017-10-06T10:02:08.955Z,974.78
2017-10-06T10:03:18.916Z,974.82
2017-10-06T10:04:29.207Z,974.81
2017-10-06T10:05:39.641Z,974.9
2017-10-06T10:06:49.922Z,974.83
2017-10-06T10:07:59.878Z,974.92
2017-10-06T10:09:09.833Z,974.95
2017-10-06T10:10:20.116Z,974.87
2017-10-06T10:11:31.856Z,974.89
2017-10-06T10:12:41.813Z,974.98
2017-10-06T10:13:52.094Z,974.94
2017-10-06T10:15:01.729Z,974.91
2017-10-06T10:16:12.010Z,974.97
2017-10-06T10:17:22.068Z,975.05
2017-10-06T10:18:32.026Z,974.97
2017-10-06T10:19:42.306Z,975.08
2017-10-06T10:20:51.941Z,975.08
2017-10-06T10:22:02.222Z,975.05
2017-10-06T10:23:11.958Z,975.07
2017-10-06T10:24:21.917Z,975.05
2017-10-06T10:25:31.883Z,975.1
2017-10-06T10:26:41.843Z,975.09
2017-10-06T10:27:52.124Z,975.05
2017-10-06T10:29:02.503Z,975.06
2017-10-06T10:30:12.140Z,975.03
2017-10-06T10:31:22.097Z,975.03
2017-10-06T10:32:32.080Z,975.04
2017-10-06T10:33:42.050Z,975.06
2017-10-06T10:34:52.430Z,975.08
2017-10-06T10:36:02.082Z,975.03
2017-10-06T10:37:12.042Z,975
2017-10-06T10:38:22.000Z,975.02
2017-10-06T10:39:32.290Z,974.99
2017-10-06T10:40:42.680Z,975.11
2017-10-06T10:41:52.961Z,975.01
2017-10-06T10:43:03.258Z,974.97
2017-10-06T10:44:12.897Z,975.04
2017-10-06T10:45:23.177Z,975.1
2017-10-06T10:46:32.596Z,975.09
2017-10-06T10:47:42.877Z,975.11
2017-10-06T10:48:52.519Z,975.12
2017-10-06T10:50:02.802Z,975.19
2017-10-06T10:51:13.092Z,975.09
2017-10-06T10:52:22.506Z,975.17
2017-10-06T10:53:32.471Z,975.13
2017-10-06T10:54:42.432Z,975.15
2017-10-06T10:55:52.398Z,975.2
2017-10-06T10:57:02.358Z,975.16
2017-10-06T10:58:14.744Z,975.19
2017-10-06T10:59:25.024Z,975.14
2017-10-06T11:00:35.000Z,975.14
2017-10-06T11:01:45.292Z,975.07
2017-10-06T11:02:54.933Z,975.09
2017-10-06T11:04:07.521Z,975.15
2017-10-06T11:05:17.805Z,974.97
2017-10-06T11:06:28.089Z,974.95
2017-10-06T11:07:38.392Z,975.05
2017-10-06T11:08:48.685Z,975.06
2017-10-06T11:09:59.079Z,975.16
2017-10-06T11:11:09.048Z,975.12
2017-10-06T11:12:18.742Z,975.18
2017-10-06T11:13:28.382Z,975.33
2017-10-06T11:14:38.662Z,975.3
2017-10-06T11:15:48.082Z,975.3
2017-10-06T11:16:58.050Z,975.29
2017-10-06T11:18:08.019Z,975.27
2017-10-06T11:19:17.345Z,975.28
2017-10-06T11:20:27.631Z,975.05
2017-10-06T11:21:38.272Z,975.08
2017-10-06T11:22:48.556Z,975.43
2017-10-06T11:23:58.198Z,975.38
2017-10-06T11:25:07.840Z,975.39
2017-10-06T11:26:17.486Z,975.33
2017-10-06T11:27:27.926Z,975.31
2017-10-06T11:28:38.216Z,975.36
2017-10-06T11:29:48.184Z,975.39
2017-10-06T11:30:58.496Z,975.36
2017-10-06T11:32:08.789Z,975.34
2017-10-06T11:33:18.574Z,975.4
2017-10-06T11:34:27.460Z,975.53
2017-10-06T11:35:37.966Z,975.41
2017-10-06T11:36:48.109Z,975.47
2017-10-06T11:37:58.406Z,975.55
2017-10-06T11:39:08.243Z,975.52
2017-10-06T11:40:17.565Z,975.47
2017-10-06T11:41:27.528Z,975.46
2017-10-06T11:42:37.825Z,975.4
2017-10-06T11:43:47.793Z,975.45
2017-10-06T11:44:57.587Z,975.36
2017-10-06T11:46:07.554Z,975.34
2017-10-06T11:47:17.214Z,975.34
2017-10-06T11:48:26.860Z,975.39
2017-10-06T11:49:36.828Z,975.38
2017-10-06T11:50:46.901Z,975.35
2017-10-06T11:51:56.546Z,975.34
2017-10-06T11:53:06.192Z,975.32
2017-10-06T11:54:16.162Z,975.33
2017-10-06T11:55:25.820Z,975.33
2017-10-06T11:56:36.216Z,975.39
2017-10-06T11:57:46.194Z,975.34
2017-10-06T11:58:56.485Z,975.34
2017-10-06T12:00:06.783Z,975.22
2017-10-06T12:01:16.766Z,975.18
2017-10-06T12:02:26.262Z,975.27
2017-10-06T12:03:35.917Z,975.24
2017-10-06T12:04:46.214Z,975.36
2017-10-06T12:05:56.182Z,975.3
2017-10-06T12:07:05.508Z,975.23
2017-10-06T12:08:15.509Z,975.19
2017-10-06T12:09:25.814Z,975.16
2017-10-06T12:10:36.112Z,975.17
2017-10-06T12:11:46.406Z,975.12
2017-10-06T12:12:56.055Z,975.1
2017-10-06T12:14:06.177Z,975.1
2017-10-06T12:15:16.150Z,975.1
2017-10-06T12:16:26.435Z,975.12
2017-10-06T12:17:36.403Z,975.12
2017-10-06T12:18:46.368Z,975.13
2017-10-06T12:19:56.435Z,975.19
2017-10-06T12:21:06.407Z,975.19
2017-10-06T12:22:16.696Z,975.24
2017-10-06T12:23:26.658Z,975.23
2017-10-06T12:24:36.947Z,975.22
2017-10-06T12:25:47.365Z,975.22
2017-10-06T12:26:57.655Z,975.24
2017-10-06T12:28:07.634Z,975.28
2017-10-06T12:29:17.603Z,975.3
2017-10-06T12:30:27.891Z,975.28
2017-10-06T12:31:38.281Z,975.31
2017-10-06T12:32:48.246Z,975.27
2017-10-06T12:33:57.564Z,975.25
2017-10-06T12:35:07.530Z,975.28
2017-10-06T12:36:17.495Z,975.29
2017-10-06T12:37:27.559Z,975.28
2017-10-06T12:38:37.855Z,975.33
2017-10-06T12:39:47.164Z,975.29
2017-10-06T12:40:56.804Z,975.27
2017-10-06T12:42:06.460Z,975.23
2017-10-06T12:43:16.402Z,975.29
2017-10-06T12:44:26.693Z,975.28
2017-10-06T12:45:36.013Z,975.28
2017-10-06T12:46:45.652Z,975.26
2017-10-06T12:47:55.626Z,975.31
2017-10-06T12:49:05.374Z,975.31
2017-10-06T12:50:15.663Z,975.31
2017-10-06T12:51:25.949Z,975.28
2017-10-06T12:52:35.920Z,975.3
2017-10-06T12:53:45.895Z,975.28
2017-10-06T12:54:56.224Z,975.28
2017-10-06T12:56:06.204Z,975.3
2017-10-06T12:57:16.496Z,975.3
2017-10-06T12:58:26.791Z,975.27
2017-10-06T12:59:36.753Z,975.25
2017-10-06T13:00:47.139Z,975.2
2017-10-06T13:01:57.443Z,975.22
2017-10-06T13:03:07.108Z,975.25
2017-10-06T13:04:17.400Z,975.21
2017-10-06T13:05:27.683Z,975.2
2017-10-06T13:06:38.073Z,975.21
2017-10-06T13:07:48.034Z,975.2
2017-10-06T13:08:57.996Z,975.23
2017-10-06T13:10:07.969Z,975.18
2017-10-06T13:11:18.254Z,975.22
2017-10-06T13:12:28.643Z,975.18
2017-10-06T13:13:38.603Z,975.16
2017-10-06T13:14:48.570Z,975.19
2017-10-06T13:15:58.856Z,975.22
2017-10-06T13:17:08.822Z,975.27
2017-10-06T13:18:18.563Z,975.33
2017-10-06T13:19:28.850Z,975.28
2017-10-06T13:20:38.490Z,975.27
2017-10-06T13:21:48.775Z,975.33
2017-10-06T13:22:59.063Z,975.25
2017-10-06T13:24:09.451Z,975.34
2017-10-06T13:25:19.092Z,975.34
2017-10-06T13:26:29.054Z,975.3
2017-10-06T13:27:39.025Z,975.32
2017-10-06T13:28:48.672Z,975.35
2017-10-06T13:29:58.736Z,975.24
2017-10-06T13:31:08.408Z,975.26
2017-10-06T13:32:18.369Z,975.22
2017-10-06T13:33:28.011Z,975.22
2017-10-06T13:34:37.979Z,975.24
2017-10-06T13:35:47.721Z,975.28
2017-10-06T13:36:57.684Z,975.2
2017-10-06T13:38:07.966Z,975.2
2017-10-06T13:39:17.609Z,975.23
2017-10-06T13:40:27.571Z,975.23
2017-10-06T13:41:38.210Z,975.23
2017-10-06T13:42:48.501Z,975.29
2017-10-06T13:43:58.784Z,975.23
2017-10-06T13:45:09.067Z,975.27
2017-10-06T13:46:19.028Z,975.29
2017-10-06T13:47:29.411Z,975.28
2017-10-06T13:48:39.052Z,975.31
2017-10-06T13:49:49.335Z,975.32
2017-10-06T13:50:59.624Z,975.3
2017-10-06T13:52:09.585Z,975.33
2017-10-06T13:53:19.973Z,975.34
2017-10-06T13:54:30.257Z,975.3
2017-10-06T13:55:39.898Z,975.27
2017-10-06T13:56:49.863Z,975.31
2017-10-06T13:58:00.146Z,975.3
2017-10-06T13:59:10.209Z,975.29
2017-10-06T14:00:20.495Z,975.31
2017-10-06T14:01:30.782Z,975.3
2017-10-06T14:02:41.080Z,975.36
2017-10-06T14:03:51.365Z,975.31
2017-10-06T14:05:01.427Z,975.33
2017-10-06T14:06:11.393Z,975.41
2017-10-06T14:07:21.034Z,975.39
2017-10-06T14:08:30.350Z,975.39
2017-10-06T14:09:40.631Z,975.39
2017-10-06T14:10:50.698Z,975.45
2017-10-06T14:12:00.659Z,975.37
2017-10-06T14:13:10.947Z,975.41
2017-10-06T14:14:21.235Z,975.34
2017-10-06T14:15:31.519Z,975.38
2017-10-06T14:16:41.459Z,975.39
2017-10-06T14:17:51.423Z,975.32
2017-10-06T14:19:01.712Z,975.38
2017-10-06T14:20:11.673Z,975.38
2017-10-06T14:21:21.643Z,975.35
2017-10-06T14:22:35.763Z,975.38
2017-10-06T14:23:45.403Z,975.32
2017-10-06T14:24:55.376Z,975.31
2017-10-06T14:26:05.668Z,975.28
2017-10-06T14:27:15.632Z,975.31
2017-10-06T14:28:25.697Z,975.25
2017-10-06T14:29:35.669Z,975.28
2017-10-06T14:30:45.636Z,975.29
2017-10-06T14:31:55.919Z,975.27
2017-10-06T14:33:06.210Z,975.34
2017-10-06T14:34:16.521Z,975.34
2017-10-06T14:35:26.499Z,975.26
2017-10-06T14:36:36.461Z,975.26
2017-10-06T14:37:46.426Z,975.29
2017-10-06T14:38:56.719Z,975.26
2017-10-06T14:40:07.104Z,975.28
2017-10-06T14:41:17.396Z,975.27
2017-10-06T14:42:27.677Z,975.21
2017-10-06T14:43:37.962Z,975.25
2017-10-06T14:44:48.253Z,975.25
2017-10-06T14:45:57.998Z,975.24
2017-10-06T14:47:07.958Z,975.25
2017-10-06T14:48:18.243Z,975.26
2017-10-06T14:49:28.208Z,975.2
2017-10-06T14:50:38.490Z,975.26
2017-10-06T14:51:48.561Z,975.26
2017-10-06T14:52:58.849Z,975.23
2017-10-06T14:54:08.809Z,975.21
2017-10-06T14:55:18.781Z,975.2
2017-10-06T14:56:29.066Z,975.16
2017-10-06T14:57:38.860Z,975.14
2017-10-06T14:58:49.148Z,975.14
2017-10-06T14:59:58.464Z,975.17
2017-10-06T15:01:08.751Z,975.14
2017-10-06T15:02:18.711Z,975.14
2017-10-06T15:03:28.771Z,975.1
2017-10-06T15:04:38.732Z,975.13
2017-10-06T15:05:48.695Z,975.16
2017-10-06T15:06:58.978Z,975.14
2017-10-06T15:08:08.625Z,975.08
2017-10-06T15:09:18.365Z,975.09
2017-10-06T15:10:28.656Z,975.08
2017-10-06T15:11:38.618Z,975.1
2017-10-06T15:12:48.903Z,975.1
2017-10-06T15:13:58.541Z,975.07
2017-10-06T15:15:08.601Z,975.01
2017-10-06T15:16:18.886Z,975.04
2017-10-06T15:17:29.172Z,975.04
2017-10-06T15:18:38.494Z,975.06
2017-10-06T15:19:48.135Z,975.11
2017-10-06T15:20:58.223Z,975.09
2017-10-06T15:22:08.202Z,975.11
2017-10-06T15:23:18.507Z,975.12
2017-10-06T15:24:28.470Z,975.1
2017-10-06T15:25:37.817Z,975.16
2017-10-06T15:26:50.423Z,975.16
2017-10-06T15:28:00.707Z,975.23
2017-10-06T15:29:10.673Z,975.25
2017-10-06T15:30:20.633Z,975.25
2017-10-06T15:31:30.922Z,975.25
2017-10-06T15:32:40.668Z,975.24
2017-10-06T15:33:50.951Z,975.22
2017-10-06T15:35:01.239Z,975.23
2017-10-06T15:36:11.538Z,975.28
2017-10-06T15:37:21.828Z,975.29
2017-10-06T15:38:31.569Z,975.3
2017-10-06T15:39:41.851Z,975.27
2017-10-06T15:40:51.494Z,975.31
2017-10-06T15:42:01.457Z,975.31
2017-10-06T15:43:11.739Z,975.33
2017-10-06T15:44:21.999Z,975.27
2017-10-06T15:45:31.965Z,975.23
2017-10-06T15:46:41.932Z,975.34
2017-10-06T15:47:51.569Z,975.33
2017-10-06T15:49:01.856Z,975.36
2017-10-06T15:50:11.599Z,975.43
2017-10-06T15:51:21.881Z,975.44
2017-10-06T15:52:31.842Z,975.33
2017-10-06T15:53:41.477Z,975.29
2017-10-06T15:54:51.437Z,975.25
2017-10-06T15:56:01.824Z,975.23
2017-10-06T15:57:12.105Z,975.23
2017-10-06T15:58:22.397Z,975.19
2017-10-06T15:59:32.682Z,975.18
2017-10-06T16:00:42.962Z,975.18
2017-10-06T16:01:52.701Z,975.14
2017-10-06T16:03:02.982Z,975.13
2017-10-06T16:04:13.259Z,975.15
2017-10-06T16:05:23.537Z,975.15
2017-10-06T16:06:33.497Z,975.14
2017-10-06T16:07:43.559Z,975.12
2017-10-06T16:08:53.520Z,975.12
2017-10-06T16:10:03.486Z,975.09
2017-10-06T16:11:13.445Z,975.09
2017-10-06T16:12:23.412Z,975.1
2017-10-06T16:13:33.469Z,975.09
2017-10-06T16:14:43.106Z,975.1
2017-10-06T16:15:52.741Z,975.11
2017-10-06T16:17:03.023Z,975.09
2017-10-06T16:18:12.980Z,975.11
2017-10-06T16:19:23.368Z,975.1
2017-10-06T16:20:33.346Z,975.09
2017-10-06T16:21:43.626Z,975.07
2017-10-06T16:22:53.616Z,975.09
2017-10-06T16:24:03.924Z,975.13
2017-10-06T16:25:14.324Z,975.1
2017-10-06T16:26:24.283Z,975.09
2017-10-06T16:27:34.244Z,975.08
2017-10-06T16:28:43.877Z,975.11
2017-10-06T16:29:54.154Z,975.12
2017-10-06T16:31:04.538Z,975.12
2017-10-06T16:32:14.494Z,975.09
2017-10-06T16:33:24.775Z,975.14
2017-10-06T16:34:34.738Z,975.11
2017-10-06T16:35:44.697Z,975.09
2017-10-06T16:36:54.685Z,975.11
2017-10-06T16:38:04.322Z,975.13
2017-10-06T16:39:14.280Z,975.13
2017-10-06T16:40:24.559Z,975.13
2017-10-06T16:41:34.838Z,975.11
2017-10-06T16:42:44.571Z,975.14
2017-10-06T16:43:54.526Z,975.12
2017-10-06T16:45:04.809Z,975.15
2017-10-06T16:46:14.444Z,975.16
2017-10-06T16:47:24.402Z,975.15
2017-10-06T16:48:34.459Z,975.21
2017-10-06T16:49:44.748Z,975.17
2017-10-06T16:50:54.061Z,975.26
2017-10-06T16:52:03.701Z,975.26
2017-10-06T16:53:13.670Z,975.28
2017-10-06T16:54:24.049Z,975.28
2017-10-06T16:55:34.007Z,975.3
2017-10-06T16:56:43.963Z,975.28
2017-10-06T16:57:53.920Z,975.32
2017-10-06T16:59:04.200Z,975.32
2017-10-06T17:00:14.731Z,975.32
2017-10-06T17:01:25.010Z,975.37
2017-10-06T17:02:34.647Z,975.36
2017-10-06T17:03:44.604Z,975.34
2017-10-06T17:04:54.562Z,975.36
2017-10-06T17:06:04.619Z,975.36
2017-10-06T17:07:14.577Z,975.34
2017-10-06T17:08:24.858Z,975.35
2017-10-06T17:09:35.140Z,975.4
2017-10-06T17:10:45.422Z,975.4
2017-10-06T17:11:55.813Z,975.36
2017-10-06T17:13:05.772Z,975.36
2017-10-06T17:14:15.739Z,975.38
2017-10-06T17:15:26.025Z,975.39
2017-10-06T17:16:36.306Z,975.41
2017-10-06T17:17:46.040Z,975.4
2017-10-06T17:18:55.674Z,975.41
2017-10-06T17:20:05.956Z,975.36
2017-10-06T17:21:16.236Z,975.38
2017-10-06T17:22:26.517Z,975.39
2017-10-06T17:23:36.252Z,975.33
2017-10-06T17:24:46.531Z,975.34
2017-10-06T17:25:56.813Z,975.3
2017-10-06T17:27:07.101Z,975.33
2017-10-06T17:28:17.381Z,975.31
2017-10-06T17:29:27.438Z,975.31
2017-10-06T17:30:37.397Z,975.26
2017-10-06T17:31:47.359Z,975.28
2017-10-06T17:32:57.642Z,975.28
2017-10-06T17:34:07.282Z,975.27
2017-10-06T17:35:17.861Z,975.31
2017-10-06T17:36:28.149Z,975.26
2017-10-06T17:37:38.111Z,975.29
2017-10-06T17:38:47.424Z,975.3
2017-10-06T17:39:57.418Z,975.31
2017-10-06T17:41:07.800Z,975.28
2017-10-06T17:42:17.758Z,975.26
2017-10-06T17:43:28.040Z,975.28
2017-10-06T17:44:38.006Z,975.25
2017-10-06T17:45:47.319Z,975.2
2017-10-06T17:46:57.055Z,975.21
2017-10-06T17:48:07.335Z,975.29
2017-10-06T17:49:16.982Z,975.26
2017-10-06T17:50:27.260Z,975.23
2017-10-06T17:51:36.895Z,975.24
2017-10-06T17:52:46.956Z,975.31
2017-10-06T17:53:56.916Z,975.26
2017-10-06T17:55:07.201Z,975.31
2017-10-06T17:56:17.160Z,975.29
2017-10-06T17:57:27.155Z,975.3
2017-10-06T17:58:37.536Z,975.3
2017-10-06T17:59:47.177Z,975.28
2017-10-06T18:00:57.134Z,975.28
2017-10-06T18:02:07.093Z,975.31
2017-10-06T18:03:17.381Z,975.28
2017-10-06T18:04:27.768Z,975.26
2017-10-06T18:05:37.726Z,975.28
2017-10-06T18:06:47.368Z,975.3
2017-10-06T18:07:57.681Z,975.3
2017-10-06T18:09:07.318Z,975.33
2017-10-06T18:10:17.375Z,975.34
2017-10-06T18:11:27.655Z,975.33
2017-10-06T18:12:37.940Z,975.36
2017-10-06T18:13:48.220Z,975.31
2017-10-06T18:14:58.185Z,975.32
2017-10-06T18:16:08.243Z,975.33
2017-10-06T18:17:18.523Z,975.28
2017-10-06T18:18:28.802Z,975.26
2017-10-06T18:19:39.081Z,975.24
2017-10-06T18:20:49.370Z,975.29
2017-10-06T18:22:01.750Z,975.26
2017-10-06T18:23:12.041Z,975.25
2017-10-06T18:24:22.325Z,975.32
2017-10-06T18:25:32.289Z,975.31
2017-10-06T18:26:42.246Z,975.27
2017-10-06T18:27:52.778Z,975.29
2017-10-06T18:29:02.736Z,975.28
2017-10-06T18:30:13.017Z,975.27
2017-10-06T18:31:23.298Z,975.22
2017-10-06T18:32:33.259Z,975.25
2017-10-06T18:33:43.640Z,975.23
2017-10-06T18:34:53.925Z,975.22
2017-10-06T18:36:04.211Z,975.23
2017-10-06T18:37:13.848Z,975.28
2017-10-06T18:38:24.133Z,975.25
2017-10-06T18:39:34.192Z,975.28
2017-10-06T18:40:44.152Z,975.26
2017-10-06T18:41:54.109Z,975.29
2017-10-06T18:43:04.395Z,975.23
2017-10-06T18:44:14.042Z,975.19
2017-10-06T18:45:24.350Z,975.16
2017-10-06T18:46:34.644Z,975.11
2017-10-06T18:47:44.610Z,975.1
2017-10-06T18:48:54.566Z,975.13
2017-10-06T18:50:04.846Z,975.13
2017-10-06T18:51:16.903Z,975.18
2017-10-06T18:52:27.182Z,975.14
2017-10-06T18:53:36.815Z,975.14
2017-10-06T18:54:46.772Z,975.14
2017-10-06T18:55:56.406Z,975.12
2017-10-06T18:57:06.785Z,975.11
2017-10-06T18:58:16.744Z,975.07
2017-10-06T18:59:27.023Z,975.08
2017-10-06T19:00:36.979Z,975.11
2017-10-06T19:01:46.619Z,975.11
2017-10-06T19:02:57.000Z,975.17
2017-10-06T19:04:07.284Z,975.11
2017-10-06T19:05:17.242Z,975.12
2017-10-06T19:06:26.877Z,975.09
2017-10-06T19:07:37.165Z,975.08
2017-10-06T19:08:46.899Z,975.08
2017-10-06T19:09:57.176Z,975.05
2017-10-06T19:11:07.137Z,975
2017-10-06T19:12:17.417Z,975.02
2017-10-06T19:13:27.377Z,975.02
2017-10-06T19:14:37.758Z,975.02
2017-10-06T19:15:47.722Z,975.03
2017-10-06T19:16:58.005Z,975.05
2017-10-06T19:18:08.284Z,975.09
2017-10-06T19:19:18.244Z,975.07
2017-10-06T19:20:28.627Z,975.07
2017-10-06T19:21:38.903Z,975.04
2017-10-06T19:22:49.193Z,975.06
2017-10-06T19:23:59.473Z,975.02
2017-10-06T19:25:09.105Z,975.06
2017-10-06T19:26:19.170Z,975.05
2017-10-06T19:27:29.453Z,975.03
2017-10-06T19:28:39.447Z,975.01
2017-10-06T19:29:49.725Z,974.99
2017-10-06T19:31:00.016Z,975
2017-10-06T19:32:10.324Z,975.01
2017-10-06T19:33:19.961Z,975.02
2017-10-06T19:34:29.928Z,975
2017-10-06T19:35:40.207Z,975.08
2017-10-06T19:36:49.842Z,975.01
2017-10-06T19:38:00.221Z,975
2017-10-06T19:39:10.185Z,974.96
2017-10-06T19:40:20.143Z,974.98
2017-10-06T19:41:30.449Z,974.94
2017-10-06T19:42:40.413Z,974.91
2017-10-06T19:43:50.151Z,974.9
2017-10-06T19:45:00.107Z,974.88
2017-10-06T19:46:10.080Z,974.89
2017-10-06T19:47:20.357Z,974.85
2017-10-06T19:48:30.314Z,974.84
2017-10-06T19:49:40.046Z,974.83
2017-10-06T19:50:49.363Z,974.82
2017-10-06T19:51:59.326Z,974.77
2017-10-06T19:53:09.284Z,974.8
2017-10-06T19:54:19.244Z,974.79
2017-10-06T19:55:29.827Z,974.78
2017-10-06T19:56:39.467Z,974.8
2017-10-06T19:57:49.746Z,974.81
2017-10-06T19:59:00.029Z,974.85
2017-10-06T20:00:09.988Z,974.85
2017-10-06T20:01:22.627Z,974.9
2017-10-06T20:02:32.265Z,974.91
2017-10-06T20:03:42.557Z,974.91
2017-10-06T20:04:52.510Z,974.96
2017-10-06T20:06:02.468Z,974.99
2017-10-06T20:07:12.530Z,975.08
2017-10-06T20:08:22.808Z,975.07
2017-10-06T20:09:32.765Z,975.08
2017-10-06T20:10:42.083Z,975.08
2017-10-06T20:11:52.369Z,975.09
2017-10-06T20:13:02.752Z,975.09
2017-10-06T20:14:12.707Z,975.09
2017-10-06T20:15:22.670Z,975.08
2017-10-06T20:16:32.305Z,975.07
2017-10-06T20:17:42.582Z,975.02
2017-10-06T20:18:52.960Z,974.97
2017-10-06T20:20:03.247Z,974.94
2017-10-06T20:21:13.209Z,974.91
2017-10-06T20:22:23.167Z,974.95
2017-10-06T20:23:33.124Z,974.95
2017-10-06T20:24:43.506Z,974.89
2017-10-06T20:25:53.141Z,974.87
2017-10-06T20:27:02.773Z,974.86
2017-10-06T20:28:12.760Z,974.83
2017-10-06T20:29:22.722Z,974.77
2017-10-06T20:30:33.097Z,974.73
2017-10-06T20:31:43.053Z,974.69
2017-10-06T20:32:53.011Z,974.72
2017-10-06T20:34:03.289Z,974.75
2017-10-06T20:35:13.579Z,974.81
2017-10-06T20:36:23.637Z,974.85
2017-10-06T20:37:33.915Z,974.82
2017-10-06T20:38:43.875Z,974.82
2017-10-06T20:39:53.831Z,974.87
2017-10-06T20:41:03.790Z,974.87
2017-10-06T20:42:13.852Z,974.88
2017-10-06T20:43:23.814Z,974.9
2017-10-06T20:44:34.092Z,974.87
2017-10-06T20:45:44.049Z,974.92
2017-10-06T20:46:54.010Z,974.88
2017-10-06T20:48:04.392Z,974.89
2017-10-06T20:49:14.348Z,974.91
2017-10-06T20:50:23.983Z,974.85
2017-10-06T20:51:34.260Z,974.83
2017-10-06T20:52:44.537Z,974.86
2017-10-06T20:53:54.594Z,974.84
2017-10-06T20:55:04.872Z,974.89
2017-10-06T20:56:15.189Z,974.85
2017-10-06T20:57:25.146Z,974.86
2017-10-06T20:58:35.103Z,974.85
2017-10-06T20:59:45.165Z,974.83
2017-10-06T21:00:55.444Z,974.83
2017-10-06T21:02:05.724Z,974.82
2017-10-06T21:03:15.680Z,974.78
2017-10-06T21:04:25.643Z,974.8
2017-10-06T21:05:35.702Z,974.76
2017-10-06T21:06:45.656Z,974.76
2017-10-06T21:07:55.290Z,974.75
2017-10-06T21:09:05.568Z,974.78
2017-10-06T21:10:15.850Z,974.79
2017-10-06T21:11:25.905Z,974.79
2017-10-06T21:12:36.183Z,974.79
2017-10-06T21:13:46.462Z,974.83
2017-10-06T21:14:56.740Z,974.78
2017-10-06T21:16:07.022Z,974.78
2017-10-06T21:17:16.759Z,974.79
2017-10-06T21:18:26.413Z,974.77
2017-10-06T21:19:36.376Z,974.75
2017-10-06T21:20:46.337Z,974.76
2017-10-06T21:21:55.978Z,974.74
2017-10-06T21:23:06.187Z,974.74
2017-10-06T21:24:16.465Z,974.7
2017-10-06T21:25:26.742Z,974.69
2017-10-06T21:26:36.702Z,974.7
2017-10-06T21:27:46.335Z,974.71
2017-10-06T21:28:56.399Z,974.69
2017-10-06T21:30:06.678Z,974.72
2017-10-06T21:31:16.961Z,974.7
2017-10-06T21:32:26.917Z,974.64
2017-10-06T21:33:37.197Z,974.6
2017-10-06T21:34:47.451Z,974.59
2017-10-06T21:35:57.731Z,974.61
2017-10-06T21:37:07.366Z,974.6
2017-10-06T21:38:17.320Z,974.65
2017-10-06T21:39:27.595Z,974.61
2017-10-06T21:40:37.657Z,974.64
2017-10-06T21:41:47.610Z,974.64
2017-10-06T21:42:57.569Z,974.63
2017-10-06T21:44:07.849Z,974.59
2017-10-06T21:45:17.487Z,974.57
2017-10-06T21:46:27.552Z,974.58
2017-10-06T21:47:37.509Z,974.58
2017-10-06T21:48:47.795Z,974.58
2017-10-06T21:49:57.752Z,974.56
2017-10-06T21:51:07.385Z,974.57
2017-10-06T21:52:17.705Z,974.53
2017-10-06T21:53:27.985Z,974.52
2017-10-06T21:54:38.264Z,974.52
2017-10-06T21:55:48.222Z,974.53
2017-10-06T21:56:58.177Z,974.56
2017-10-06T21:58:07.915Z,974.54
2017-10-06T21:59:17.872Z,974.49
2017-10-06T22:00:28.149Z,974.51
2017-10-06T22:01:38.427Z,974.52
2017-10-06T22:02:48.704Z,974.47
2017-10-06T22:03:58.437Z,974.5
2017-10-06T22:05:08.719Z,974.42
2017-10-06T22:06:18.352Z,974.45
2017-10-06T22:07:28.309Z,974.43
2017-10-06T22:08:37.623Z,974.44
2017-10-06T22:09:47.708Z,974.42
2017-10-06T22:10:57.661Z,974.41
2017-10-06T22:12:06.973Z,974.37
2017-10-06T22:13:16.926Z,974.39
2017-10-06T22:14:26.563Z,974.35
2017-10-06T22:15:36.944Z,974.32
2017-10-06T22:16:47.237Z,974.31
2017-10-06T22:17:57.519Z,974.31
2017-10-06T22:19:07.476Z,974.28
2017-10-06T22:20:17.756Z,974.26
2017-10-06T22:21:27.813Z,974.22
2017-10-06T22:22:38.087Z,974.21
2017-10-06T22:23:48.367Z,974.19
2017-10-06T22:24:58.335Z,974.22
2017-10-06T22:26:07.968Z,974.25
2017-10-06T22:27:18.023Z,974.2
2017-10-06T22:28:28.302Z,974.17
2017-10-06T22:29:38.580Z,974.17
2017-10-06T22:30:48.857Z,974.16
2017-10-06T22:31:59.151Z,974.11
2017-10-06T22:33:09.211Z,974.1
2017-10-06T22:34:18.842Z,974.08
2017-10-06T22:35:29.119Z,974.08
2017-10-06T22:36:39.080Z,974.07
2017-10-06T22:37:49.358Z,974.01
2017-10-06T22:39:00.035Z,974.01
2017-10-06T22:40:09.986Z,973.99
2017-10-06T22:41:20.261Z,973.94